Terminal Aerodrome Forecast
Issued by NWS

Home | Current Version | Previous Version | Text Only | Print | Product List | Glossary On
Versions: 1 2 3 4 5 6 7 8 9 10 11 12
000
FTUS46 KPDT 031140
TAFALW
TAF
KALW 031140Z 0312/0412 16005KT P6SM SCT150 BKN250
     FM031800 22008G15KT P6SM FEW120 BKN150 OVC200
     FM040300 19007KT P6SM FEW150 SCT250=

USA.gov is the U.S. government's official web portal to all federal, state and local government web resources and services.